Time;durP1;ratioP1;P1;durP2;ratioP2;P2;SDS_P1;SDS_P2;PMS_P1;PMS_P2;Temp;Humidity;BMP_temperature;BMP_pressure;BME280_temperature;BME280_humidity;BME280_pressure;Samples;Min_cycle;Max_cycle;Signal;HPM_P1;HPM_P2
2023/06/22 00:01:23;;;;;;;10.80;5.37;;;24.40;1.00;;;;;;5029604;28;20280;-74
2023/06/22 00:03:48;;;;;;;7.53;5.60;;;25.50;1.00;;;;;;5029395;28;20592;-74
2023/06/22 00:06:14;;;;;;;10.60;5.57;;;24.40;1.00;;;;;;5029149;28;20189;-74
2023/06/22 00:08:40;;;;;;;10.33;6.10;;;24.40;1.00;;;;;;5029801;28;20627;-74
2023/06/22 00:11:06;;;;;;;6.90;5.07;;;24.40;1.00;;;;;;5029377;28;20262;-74
2023/06/22 00:13:31;;;;;;;7.50;5.33;;;24.40;1.00;;;;;;5029175;28;20431;-74
2023/06/22 00:15:57;;;;;;;8.50;5.40;;;24.40;1.00;;;;;;5037183;28;20181;-73
2023/06/22 00:18:22;;;;;;;8.63;5.67;;;24.50;1.00;;;;;;5030039;28;20272;-74
2023/06/22 00:20:47;;;;;;;6.70;5.43;;;24.50;1.00;;;;;;5037071;28;20223;-74
2023/06/22 00:23:15;;;;;;;10.10;5.50;;;24.40;1.00;;;;;;5029429;28;20189;-74
2023/06/22 00:25:41;;;;;;;6.27;5.20;;;24.30;1.00;;;;;;5027957;28;20203;-74
2023/06/22 00:28:07;;;;;;;6.70;5.17;;;24.40;1.00;;;;;;5029133;28;20525;-74
2023/06/22 00:30:33;;;;;;;7.20;5.50;;;24.40;1.00;;;;;;5029189;28;20197;-74
2023/06/22 00:32:59;;;;;;;8.10;5.93;;;24.40;1.00;;;;;;5027514;28;20467;-73
2023/06/22 00:35:29;;;;;;;9.27;5.17;;;24.40;1.00;;;;;;5029380;28;20185;-73
2023/06/22 00:38:00;;;;;;;6.83;5.50;;;24.40;1.00;;;;;;5029001;28;20415;-74
2023/06/22 00:40:29;;;;;;;9.23;5.97;;;24.30;1.00;;;;;;5029146;28;20444;-74
2023/06/22 00:42:55;;;;;;;7.80;5.80;;;24.40;1.00;;;;;;5030865;28;20778;-74
2023/06/22 00:45:22;;;;;;;8.83;5.47;;;;;;;;;;5035640;28;20427;-74
2023/06/22 00:47:50;;;;;;;7.50;5.57;;;24.40;1.00;;;;;;5029032;28;20408;-74
2023/06/22 00:50:20;;;;;;;7.37;5.60;;;24.30;1.00;;;;;;5029250;28;20467;-74
2023/06/22 00:52:56;;;;;;;10.27;6.20;;;24.30;1.00;;;;;;5029330;28;20462;-74
2023/06/22 00:55:22;;;;;;;10.90;6.43;;;24.30;1.00;;;;;;5029683;28;20431;-74
2023/06/22 00:57:48;;;;;;;8.47;6.50;;;24.20;1.00;;;;;;5027283;28;20682;-74
2023/06/22 01:00:19;;;;;;;14.23;7.83;;;24.20;1.00;;;;;;5029082;28;20440;-74
2023/06/22 01:02:45;;;;;;;17.40;7.90;;;;;;;;;;5037507;28;20420;-75
2023/06/22 01:05:15;;;;;;;19.67;9.03;;;23.70;1.00;;;;;;5037719;28;20928;-74
2023/06/22 01:08:05;;;;;;;13.30;8.10;;;23.20;1.00;;;;;;5029137;28;20424;-74
2023/06/22 01:10:45;;;;;;;12.07;8.30;;;22.90;1.00;;;;;;5026565;28;20925;-74
2023/06/22 01:13:20;;;;;;;14.67;8.70;;;22.60;1.00;;;;;;5028135;28;20823;-74
2023/06/22 01:15:50;;;;;;;14.70;8.30;;;22.30;1.00;;;;;;5027615;28;20431;-75
2023/06/22 01:18:18;;;;;;;12.60;8.67;;;23.70;1.00;;;;;;5032970;28;20427;-74
2023/06/22 01:20:44;;;;;;;12.93;7.57;;;22.00;1.00;;;;;;5032509;28;20447;-74
2023/06/22 01:23:34;;;;;;;14.87;7.70;;;21.90;1.00;;;;;;5040747;28;20435;-73
2023/06/22 01:26:27;;;;;;;15.00;8.80;;;21.70;1.00;;;;;;5030717;28;20430;-73
2023/06/22 01:28:55;;;;;;;13.57;7.90;;;21.50;1.00;;;;;;5032645;28;20506;-75
2023/06/22 01:31:24;;;;;;;13.63;8.93;;;21.70;1.00;;;;;;5032233;28;20506;-75
2023/06/22 01:33:53;;;;;;;11.70;8.67;;;21.30;1.00;;;;;;5032497;28;20515;-74
2023/06/22 01:36:19;;;;;;;12.00;9.10;;;21.30;1.00;;;;;;5032499;28;20444;-74
2023/06/22 01:38:46;;;;;;;13.83;9.33;;;21.40;1.00;;;;;;5033061;28;20935;-75
2023/06/22 01:41:13;;;;;;;13.30;10.13;;;21.30;1.00;;;;;;5032195;28;20424;-74
2023/06/22 01:43:39;;;;;;;16.27;9.70;;;21.40;1.00;;;;;;5032956;28;21004;-74
2023/06/22 01:46:04;;;;;;;12.03;9.67;;;21.50;1.00;;;;;;5031982;28;20767;-74
2023/06/22 01:48:31;;;;;;;18.30;10.83;;;21.50;1.00;;;;;;5046729;28;20509;-74
2023/06/22 01:50:57;;;;;;;14.13;10.17;;;21.50;1.00;;;;;;5033746;28;20217;-74
2023/06/22 01:53:23;;;;;;;11.30;9.60;;;21.50;1.00;;;;;;5031113;28;20462;-74
2023/06/22 01:55:48;;;;;;;17.73;9.90;;;21.50;1.00;;;;;;5030446;28;20664;-74
2023/06/22 01:58:14;;;;;;;15.03;9.50;;;21.70;1.00;;;;;;5031768;28;20292;-75
2023/06/22 02:00:48;;;;;;;11.33;9.70;;;21.60;1.00;;;;;;5038999;28;20216;-74
2023/06/22 02:03:19;;;;;;;13.60;10.33;;;21.40;1.00;;;;;;5030905;28;20185;-74
2023/06/22 02:05:50;;;;;;;15.60;11.97;;;21.40;1.00;;;;;;5030917;28;20900;-74
2023/06/22 02:08:32;;;;;;;15.30;10.40;;;21.40;1.00;;;;;;5024315;28;20485;-74
2023/06/22 02:10:59;;;;;;;15.63;11.60;;;21.40;1.00;;;;;;5031314;28;20439;-73
2023/06/22 02:13:25;;;;;;;17.23;11.17;;;21.50;1.00;;;;;;5032021;28;20463;-74
2023/06/22 02:15:51;;;;;;;13.80;11.10;;;21.50;1.00;;;;;;5040158;28;20882;-74
2023/06/22 02:18:17;;;;;;;11.70;9.77;;;21.50;1.00;;;;;;5040344;28;20447;-74
2023/06/22 02:20:42;;;;;;;13.50;11.30;;;21.50;1.00;;;;;;5030206;28;20228;-74
2023/06/22 02:23:08;;;;;;;15.23;11.07;;;;;;;;;;5032976;28;20575;-74
2023/06/22 02:25:35;;;;;;;13.97;10.67;;;21.60;1.00;;;;;;5031597;28;20185;-74
2023/06/22 02:28:01;;;;;;;13.50;10.50;;;;;;;;;;5031245;28;20424;-75
2023/06/22 02:30:27;;;;;;;13.60;11.17;;;21.50;1.00;;;;;;5031444;28;20791;-74
2023/06/22 02:32:58;;;;;;;19.30;10.70;;;21.50;1.00;;;;;;5031897;28;20471;-74
2023/06/22 02:35:31;;;;;;;16.17;11.47;;;21.50;1.00;;;;;;5030919;28;20189;-74
2023/06/22 02:38:01;;;;;;;14.50;10.90;;;21.40;1.00;;;;;;5031744;28;20420;-74
2023/06/22 02:40:27;;;;;;;17.70;11.63;;;21.40;1.00;;;;;;5030263;28;20444;-74
2023/06/22 02:42:52;;;;;;;14.10;11.40;;;21.30;1.00;;;;;;5029928;28;20949;-74
2023/06/22 02:45:18;;;;;;;15.57;11.27;;;21.50;1.00;;;;;;5030159;28;20278;-74
2023/06/22 02:47:44;;;;;;;14.47;11.17;;;21.50;1.00;;;;;;5038410;28;20181;-74
2023/06/22 02:50:10;;;;;;;15.27;10.97;;;21.60;1.00;;;;;;5041669;28;20259;-74
2023/06/22 02:52:35;;;;;;;17.03;10.50;;;21.40;1.00;;;;;;5036620;28;20217;-75
2023/06/22 02:55:01;;;;;;;14.57;11.17;;;21.40;1.00;;;;;;5029909;28;20636;-75
2023/06/22 02:57:26;;;;;;;19.53;11.00;;;21.10;1.00;;;;;;5029731;28;20169;-75
2023/06/22 02:59:52;;;;;;;14.77;10.67;;;21.10;1.00;;;;;;5031079;28;20243;-74
2023/06/22 03:02:20;;;;;;;19.70;11.50;;;21.10;1.00;;;;;;5042993;28;20295;-74
2023/06/22 03:04:48;;;;;;;14.47;10.80;;;21.00;1.00;;;;;;5050102;28;20271;-74
2023/06/22 03:07:14;;;;;;;13.40;10.10;;;21.30;1.00;;;;;;5037999;28;20441;-74
2023/06/22 03:09:41;;;;;;;14.20;10.90;;;21.10;1.00;;;;;;5029921;28;20450;-75
2023/06/22 03:12:07;;;;;;;13.83;10.80;;;21.10;1.00;;;;;;5030738;28;20208;-74
2023/06/22 03:14:33;;;;;;;15.40;10.23;;;21.10;1.00;;;;;;5029944;28;20456;-74
2023/06/22 03:17:02;;;;;;;14.13;10.70;;;21.30;1.00;;;;;;5031396;28;20448;-74
2023/06/22 03:19:29;;;;;;;14.80;10.03;;;21.10;1.00;;;;;;5032708;28;20197;-77
2023/06/22 03:21:55;;;;;;;15.50;10.10;;;21.30;1.00;;;;;;5030125;28;20994;-75
2023/06/22 03:24:21;;;;;;;12.70;10.20;;;;;;;;;;5030973;28;20519;-76
2023/06/22 03:26:46;;;;;;;14.83;10.23;;;21.10;1.00;;;;;;5030963;28;20246;-76
2023/06/22 03:29:12;;;;;;;15.40;10.10;;;21.40;1.00;;;;;;5030762;28;20588;-75
2023/06/22 03:31:37;;;;;;;12.83;9.83;;;21.80;1.00;;;;;;5029045;28;20695;-74
2023/06/22 03:34:03;;;;;;;14.43;10.27;;;21.00;1.00;;;;;;5038700;28;20185;-75
2023/06/22 03:36:28;;;;;;;13.63;9.77;;;21.00;1.00;;;;;;5030524;28;20200;-75
2023/06/22 03:38:55;;;;;;;13.40;10.30;;;20.90;1.00;;;;;;5028899;28;20193;-75
2023/06/22 03:41:20;;;;;;;15.97;10.50;;;21.60;1.00;;;;;;5028825;28;20636;-75
2023/06/22 03:43:46;;;;;;;14.70;10.00;;;21.00;1.00;;;;;;5029750;28;20435;-75
2023/06/22 03:46:11;;;;;;;13.63;10.90;;;20.90;1.00;;;;;;5030081;28;20655;-75
2023/06/22 03:48:38;;;;;;;12.80;10.10;;;20.80;1.00;;;;;;5029655;28;20181;-74
2023/06/22 03:51:03;;;;;;;15.47;10.60;;;20.90;1.00;;;;;;5038205;28;20193;-74
2023/06/22 03:53:29;;;;;;;15.10;9.43;;;20.80;1.00;;;;;;5030758;28;20434;-74
2023/06/22 03:55:55;;;;;;;11.97;8.97;;;21.00;1.00;;;;;;5029948;28;20188;-74
2023/06/22 03:58:21;;;;;;;12.43;8.63;;;21.00;1.00;;;;;;5030779;28;20485;-74
2023/06/22 04:00:48;;;;;;;12.77;9.43;;;20.90;1.00;;;;;;5029145;28;20857;-74
2023/06/22 04:03:14;;;;;;;13.67;9.07;;;20.90;1.00;;;;;;5028297;28;20189;-74
2023/06/22 04:05:40;;;;;;;15.13;9.47;;;20.90;1.00;;;;;;5030216;28;20858;-74
2023/06/22 04:08:06;;;;;;;10.57;8.43;;;20.90;1.00;;;;;;5029920;28;20436;-75
2023/06/22 04:10:32;;;;;;;14.83;9.20;;;21.00;1.00;;;;;;5038795;28;20795;-74
2023/06/22 04:12:57;;;;;;;12.23;9.27;;;20.90;1.00;;;;;;5038580;28;20213;-75
2023/06/22 04:15:23;;;;;;;20.10;9.90;;;20.90;1.00;;;;;;5038518;28;20666;-75
2023/06/22 04:17:48;;;;;;;12.10;9.10;;;20.90;1.00;;;;;;5028763;28;20419;-74
2023/06/22 04:20:14;;;;;;;16.27;10.80;;;20.90;1.00;;;;;;5032574;28;20587;-75
2023/06/22 04:22:39;;;;;;;15.07;10.67;;;21.00;1.00;;;;;;5041812;28;20180;-74
2023/06/22 04:25:07;;;;;;;11.20;9.57;;;21.00;1.00;;;;;;5031889;28;20189;-74
2023/06/22 04:27:36;;;;;;;13.43;9.10;;;21.10;1.00;;;;;;5030514;28;20178;-75
2023/06/22 04:30:12;;;;;;;12.93;9.60;;;21.10;1.00;;;;;;5029541;28;20444;-75
2023/06/22 04:32:37;;;;;;;13.03;9.63;;;21.20;1.00;;;;;;5030038;28;20550;-74
2023/06/22 04:35:06;;;;;;;11.77;9.30;;;21.30;1.00;;;;;;5029702;28;20582;-75
2023/06/22 04:37:33;;;;;;;11.90;10.03;;;21.40;1.00;;;;;;5030259;28;20185;-75
2023/06/22 04:39:58;;;;;;;12.47;8.30;;;21.40;1.00;;;;;;5029296;28;21034;-75
2023/06/22 04:42:27;;;;;;;11.40;8.60;;;21.50;1.00;;;;;;5028745;28;20523;-74
2023/06/22 04:44:54;;;;;;;12.73;8.50;;;;;;;;;;5029863;28;20181;-75
2023/06/22 04:47:20;;;;;;;16.00;9.73;;;21.60;1.00;;;;;;5029465;28;20505;-75
2023/06/22 04:49:45;;;;;;;14.60;9.37;;;21.70;1.00;;;;;;5029695;28;20479;-75
2023/06/22 04:52:12;;;;;;;13.70;9.20;;;22.30;1.00;;;;;;5041195;28;20571;-75
2023/06/22 04:54:39;;;;;;;11.63;9.33;;;21.70;1.00;;;;;;5034065;28;20215;-74
2023/06/22 04:57:10;;;;;;;9.47;8.40;;;21.80;1.00;;;;;;5033008;28;20412;-75
2023/06/22 04:59:38;;;;;;;10.97;9.03;;;21.80;1.00;;;;;;5033448;28;20462;-75
2023/06/22 05:02:05;;;;;;;15.83;9.10;;;21.90;1.00;;;;;;5032969;28;20570;-74
2023/06/22 05:04:31;;;;;;;10.10;8.33;;;;;;;;;;5032507;28;20463;-75
2023/06/22 05:06:59;;;;;;;10.30;8.27;;;22.00;1.00;;;;;;5032123;28;20497;-75
2023/06/22 05:09:25;;;;;;;10.73;8.40;;;22.10;1.00;;;;;;5032079;28;20460;-74
2023/06/22 05:11:51;;;;;;;12.00;8.67;;;22.20;1.00;;;;;;5033058;28;20517;-74
2023/06/22 05:14:18;;;;;;;12.47;8.67;;;22.20;1.00;;;;;;5027750;28;20225;-74
2023/06/22 05:16:44;;;;;;;9.40;7.33;;;;;;;;;;5032956;28;20185;-74
2023/06/22 05:19:10;;;;;;;12.17;8.50;;;22.30;1.00;;;;;;5032964;28;20797;-75
2023/06/22 05:21:35;;;;;;;10.40;8.40;;;;;;;;;;5032775;28;20530;-75
2023/06/22 05:24:02;;;;;;;10.80;7.93;;;;;;;;;;5033135;28;20220;-75
2023/06/22 05:26:30;;;;;;;10.30;8.47;;;22.60;1.00;;;;;;5032306;28;20185;-74
2023/06/22 05:28:55;;;;;;;11.73;8.00;;;22.70;1.00;;;;;;5040406;28;20476;-74
2023/06/22 05:31:21;;;;;;;9.37;7.63;;;23.10;1.00;;;;;;5032494;28;20480;-75
2023/06/22 05:33:48;;;;;;;10.80;7.20;;;22.90;1.00;;;;;;5039323;28;20246;-75
2023/06/22 05:36:14;;;;;;;11.57;8.47;;;23.40;1.00;;;;;;5033532;28;20431;-74
2023/06/22 05:38:40;;;;;;;9.47;7.20;;;23.20;1.00;;;;;;5031359;28;20486;-74
2023/06/22 05:41:06;;;;;;;11.17;7.60;;;23.20;1.00;;;;;;5031740;28;20188;-75
2023/06/22 05:43:31;;;;;;;18.13;8.17;;;23.20;1.00;;;;;;5032603;28;20514;-74
2023/06/22 05:45:58;;;;;;;10.87;8.53;;;23.40;1.00;;;;;;5032414;28;20276;-74
2023/06/22 05:48:23;;;;;;;11.30;7.50;;;23.60;1.00;;;;;;5030825;28;20207;-74
2023/06/22 05:50:49;;;;;;;11.17;7.57;;;23.60;1.00;;;;;;5030844;28;20456;-74
2023/06/22 05:53:15;;;;;;;10.97;7.80;;;23.70;1.00;;;;;;5031839;28;20646;-74
2023/06/22 05:55:40;;;;;;;9.83;7.97;;;24.90;1.00;;;;;;5032091;28;20174;-75
2023/06/22 05:58:06;;;;;;;12.13;7.90;;;23.80;1.00;;;;;;5031576;28;20686;-75
2023/06/22 06:00:32;;;;;;;10.07;8.13;;;23.90;1.00;;;;;;5032161;28;20810;-74
2023/06/22 06:03:03;;;;;;;11.33;8.60;;;23.90;1.00;;;;;;5027049;28;20181;-75
2023/06/22 06:05:32;;;;;;;10.33;8.27;;;25.60;1.00;;;;;;5040322;28;20552;-74
2023/06/22 06:07:58;;;;;;;8.63;7.33;;;24.20;1.00;;;;;;5037422;28;20420;-75
2023/06/22 06:10:23;;;;;;;10.63;7.50;;;24.20;1.00;;;;;;5031081;28;20997;-75
2023/06/22 06:12:49;;;;;;;9.47;7.70;;;24.20;1.00;;;;;;5031919;28;20197;-75
2023/06/22 06:15:14;;;;;;;10.40;7.93;;;24.30;1.00;;;;;;5033373;28;20543;-75
2023/06/22 06:17:51;;;;;;;11.00;7.90;;;24.40;1.00;;;;;;5038504;28;20220;-74
2023/06/22 06:20:22;;;;;;;10.60;7.30;;;24.50;1.00;;;;;;5031417;28;20590;-74
2023/06/22 06:22:48;;;;;;;9.80;7.37;;;;;;;;;;5031750;28;20435;-75
2023/06/22 06:25:19;;;;;;;11.70;7.60;;;;;;;;;;5031381;28;20416;-75
2023/06/22 06:27:46;;;;;;;11.40;8.33;;;24.70;1.00;;;;;;5030433;28;20420;-74
2023/06/22 06:30:13;;;;;;;9.90;8.13;;;24.80;1.00;;;;;;5031383;28;20447;-75
2023/06/22 06:32:39;;;;;;;10.13;8.00;;;24.80;1.00;;;;;;5036382;28;20463;-74
2023/06/22 06:35:09;;;;;;;12.87;7.80;;;25.00;1.00;;;;;;5033272;28;20938;-74
2023/06/22 06:37:37;;;;;;;10.00;7.87;;;25.20;1.00;;;;;;5031743;28;20435;-74
2023/06/22 06:40:05;;;;;;;10.90;8.03;;;25.30;1.00;;;;;;5031564;28;20483;-75
2023/06/22 06:42:31;;;;;;;10.70;8.47;;;25.30;1.00;;;;;;5031670;28;20478;-74
2023/06/22 06:44:56;;;;;;;11.53;8.27;;;27.40;1.00;;;;;;5031311;28;20427;-74
2023/06/22 06:47:22;;;;;;;12.00;8.50;;;25.60;1.00;;;;;;5031013;28;20208;-74
2023/06/22 06:49:48;;;;;;;10.27;8.20;;;26.50;1.00;;;;;;5037332;28;20269;-74
2023/06/22 06:52:14;;;;;;;9.90;8.07;;;;;;;;;;5032922;28;20197;-75
2023/06/22 06:54:41;;;;;;;12.70;8.63;;;;;;;;;;5029940;28;20170;-75
2023/06/22 06:57:10;;;;;;;11.20;8.40;;;;;;;;;;5030763;28;20177;-75
2023/06/22 06:59:36;;;;;;;9.67;8.67;;;25.90;1.00;;;;;;5039430;28;20487;-75
2023/06/22 07:02:01;;;;;;;12.00;8.10;;;26.00;1.00;;;;;;5031055;28;20613;-75
2023/06/22 07:04:27;;;;;;;12.20;8.10;;;;;;;;;;5038972;28;20192;-74
2023/06/22 07:06:53;;;;;;;10.93;8.80;;;;;;;;;;5030933;28;20812;-74
2023/06/22 07:09:19;;;;;;;12.40;8.63;;;26.20;1.00;;;;;;5032727;28;20583;-75
2023/06/22 07:11:44;;;;;;;10.53;8.67;;;26.20;1.00;;;;;;5037050;28;20785;-74
2023/06/22 07:14:10;;;;;;;10.50;8.53;;;26.40;1.00;;;;;;5024711;28;20186;-74
2023/06/22 07:16:35;;;;;;;9.33;8.33;;;26.40;1.00;;;;;;5038014;28;20188;-74
2023/06/22 07:19:01;;;;;;;10.00;8.90;;;26.60;1.00;;;;;;5030735;28;20207;-75
2023/06/22 07:21:26;;;;;;;13.50;8.50;;;26.70;1.00;;;;;;5030242;28;20201;-74
2023/06/22 07:23:52;;;;;;;10.30;8.70;;;27.00;1.00;;;;;;5044727;28;20196;-74
2023/06/22 07:26:17;;;;;;;15.23;8.30;;;27.30;1.00;;;;;;5032104;28;20185;-74
2023/06/22 07:28:43;;;;;;;10.90;8.53;;;27.10;1.00;;;;;;5030861;28;20185;-74
2023/06/22 07:31:09;;;;;;;10.53;8.30;;;27.10;1.00;;;;;;5038479;28;20236;-75
2023/06/22 07:33:35;;;;;;;11.83;8.20;;;27.60;1.00;;;;;;5038479;28;20183;-74
2023/06/22 07:36:02;;;;;;;10.30;8.20;;;27.40;1.00;;;;;;5030446;28;20181;-74
2023/06/22 07:38:28;;;;;;;10.83;8.73;;;27.40;1.00;;;;;;5030326;28;20181;-74
2023/06/22 07:40:53;;;;;;;12.80;8.50;;;27.50;1.00;;;;;;5028985;28;20205;-76
2023/06/22 07:43:19;;;;;;;9.70;7.47;;;27.90;1.00;;;;;;5028804;28;20253;-74
2023/06/22 07:45:52;;;;;;;13.40;9.07;;;28.00;1.00;;;;;;5039017;28;20181;-75
2023/06/22 07:48:21;;;;;;;20.23;9.00;;;28.70;1.00;;;;;;5028752;28;20187;-75
2023/06/22 07:50:47;;;;;;;10.47;8.30;;;28.30;1.00;;;;;;5028923;28;20209;-74
2023/06/22 07:53:12;;;;;;;11.93;8.80;;;28.00;1.00;;;;;;5029899;28;20209;-75
2023/06/22 07:55:38;;;;;;;14.23;8.03;;;28.50;1.00;;;;;;5028731;28;20264;-74
2023/06/22 07:58:03;;;;;;;13.53;8.17;;;28.20;1.00;;;;;;5030028;28;20185;-74
2023/06/22 08:00:29;;;;;;;12.33;8.70;;;;;;;;;;5029753;28;20266;-74
2023/06/22 08:02:55;;;;;;;10.30;8.40;;;28.70;1.00;;;;;;5044788;28;20263;-75
2023/06/22 08:05:21;;;;;;;8.73;7.40;;;;;;;;;;5040005;28;20188;-74
2023/06/22 08:07:46;;;;;;;8.40;7.50;;;29.40;1.00;;;;;;5038406;28;20185;-74
2023/06/22 08:10:12;;;;;;;10.53;7.60;;;29.90;1.00;;;;;;5030182;28;20216;-75
2023/06/22 08:12:41;;;;;;;10.00;8.37;;;29.80;1.00;;;;;;5030148;28;20200;-74
2023/06/22 08:15:07;;;;;;;10.70;7.67;;;29.70;1.00;;;;;;5030092;28;20188;-74
2023/06/22 08:17:33;;;;;;;9.70;7.57;;;30.00;1.00;;;;;;5029781;28;20181;-74
2023/06/22 08:19:59;;;;;;;13.10;8.10;;;;;;;;;;5030242;28;20205;-74
2023/06/22 08:22:25;;;;;;;12.32;7.60;;;30.40;1.00;;;;;;5038016;28;20200;-75
2023/06/22 08:24:51;;;;;;;13.10;8.02;;;;;;;;;;5029954;28;20185;-75
2023/06/22 08:27:20;;;;;;;10.55;8.10;;;30.60;1.00;;;;;;5029685;28;20527;-75
2023/06/22 08:29:46;;;;;;;9.30;7.35;;;30.80;1.00;;;;;;5029768;28;20216;-75
2023/06/22 08:32:12;;;;;;;14.50;7.53;;;31.00;1.00;;;;;;5029442;28;20205;-75
2023/06/22 08:34:41;;;;;;;12.35;7.22;;;31.80;1.00;;;;;;5030203;28;20185;-75
2023/06/22 08:37:09;;;;;;;9.90;7.88;;;31.70;1.00;;;;;;5030111;28;20187;-75
2023/06/22 08:39:34;;;;;;;13.93;7.75;;;31.60;1.00;;;;;;5029990;28;20662;-75
2023/06/22 08:42:00;;;;;;;10.40;6.88;;;32.00;1.00;;;;;;5038109;28;20208;-75
2023/06/22 08:44:25;;;;;;;10.23;7.30;;;32.10;1.00;;;;;;5036444;28;20607;-75
2023/06/22 08:46:53;;;;;;;12.68;7.22;;;;;;;;;;5029346;28;20268;-75
2023/06/22 08:49:18;;;;;;;13.05;7.30;;;32.10;1.00;;;;;;5037892;28;20715;-75
2023/06/22 08:51:45;;;;;;;7.95;6.28;;;33.00;1.00;;;;;;5029723;28;20208;-75
2023/06/22 08:54:12;;;;;;;10.23;7.15;;;32.80;1.00;;;;;;5030189;28;20599;-75
2023/06/22 08:56:38;;;;;;;10.52;7.65;;;32.50;1.00;;;;;;5021603;28;20188;-75
2023/06/22 08:59:07;;;;;;;15.07;7.10;;;32.20;1.00;;;;;;5036835;28;20401;-75
2023/06/22 09:01:33;;;;;;;10.18;6.90;;;29.60;1.00;;;;;;5030014;28;20189;-75
2023/06/22 09:03:59;;;;;;;9.00;6.85;;;;;;;;;;5030323;28;20184;-75
2023/06/22 09:06:25;;;;;;;10.75;7.10;;;33.30;1.00;;;;;;5029227;28;20208;-76
2023/06/22 09:08:52;;;;;;;10.95;7.13;;;33.50;1.00;;;;;;5030087;28;20189;-75
2023/06/22 09:11:17;;;;;;;9.07;7.10;;;33.50;1.00;;;;;;5021717;28;20580;-75
2023/06/22 09:13:43;;;;;;;12.30;7.18;;;33.80;1.00;;;;;;5029893;28;20182;-75
2023/06/22 09:16:09;;;;;;;11.88;7.22;;;;;;;;;;5029793;28;20193;-75
2023/06/22 09:18:36;;;;;;;10.57;6.68;;;33.70;1.00;;;;;;5029467;28;20177;-75
2023/06/22 09:21:01;;;;;;;10.27;6.63;;;33.80;1.00;;;;;;5029368;28;20544;-75
2023/06/22 09:23:27;;;;;;;7.18;6.43;;;;;;;;;;5031730;28;20196;-76
2023/06/22 09:25:53;;;;;;;11.73;6.95;;;;;;;;;;5035910;28;20659;-75
2023/06/22 09:28:19;;;;;;;8.70;6.50;;;;;;;;;;5028324;28;20189;-75
2023/06/22 09:30:45;;;;;;;8.15;6.13;;;;;;;;;;5029766;28;20236;-76
2023/06/22 09:33:11;;;;;;;7.82;6.28;;;35.70;1.00;;;;;;5030190;28;20596;-75
2023/06/22 09:35:37;;;;;;;13.15;7.05;;;;;;;;;;5029728;28;20200;-75
2023/06/22 09:38:03;;;;;;;10.43;6.22;;;;;;;;;;5030341;28;20182;-75
2023/06/22 09:40:29;;;;;;;9.77;6.70;;;;;;;;;;5033132;28;20671;-75
2023/06/22 09:42:54;;;;;;;11.57;6.43;;;35.40;1.00;;;;;;5033830;28;20185;-76
2023/06/22 09:45:20;;;;;;;7.57;6.38;;;;;;;;;;5033564;28;20201;-77
2023/06/22 09:47:46;;;;;;;10.38;6.43;;;36.70;1.00;;;;;;5034062;28;20181;-76
2023/06/22 09:50:12;;;;;;;9.63;6.32;;;;;;;;;;5033852;28;20209;-75
2023/06/22 09:52:38;;;;;;;8.68;5.90;;;;;;;;;;5033683;28;20209;-76
2023/06/22 09:55:04;;;;;;;8.55;6.03;;;38.70;1.00;;;;;;5034536;28;20173;-76
2023/06/22 09:57:30;;;;;;;22.15;6.47;;;;;;;;;;5033500;28;20601;-76
2023/06/22 09:59:55;;;;;;;10.35;6.65;;;39.10;1.00;;;;;;5034274;28;20220;-75
2023/06/22 10:02:22;;;;;;;7.97;5.85;;;;;;;;;;5033856;28;20562;-76
2023/06/22 10:04:48;;;;;;;9.23;6.18;;;;;;;;;;5042851;28;20259;-76
2023/06/22 10:07:15;;;;;;;10.15;5.65;;;;;;;;;;5034026;28;20255;-76
2023/06/22 10:09:40;;;;;;;11.65;6.30;;;38.50;1.00;;;;;;5032484;28;20274;-75
2023/06/22 10:12:06;;;;;;;10.10;5.75;;;37.60;1.00;;;;;;5033838;28;20233;-76
2023/06/22 10:14:32;;;;;;;9.07;6.40;;;;;;;;;;5033751;28;20200;-76
2023/06/22 10:16:58;;;;;;;8.77;6.00;;;37.50;1.00;;;;;;5032572;28;20594;-76
2023/06/22 10:19:24;;;;;;;12.63;6.65;;;;;;;;;;5032185;28;20198;-76
2023/06/22 10:21:49;;;;;;;14.55;6.88;;;37.30;1.00;;;;;;5033409;28;20648;-75
2023/06/22 10:24:15;;;;;;;9.75;6.72;;;;;;;;;;5032258;28;20507;-75
2023/06/22 10:26:41;;;;;;;13.15;6.53;;;36.80;1.00;;;;;;5032539;28;20275;-76
2023/06/22 10:29:07;;;;;;;12.20;5.97;;;;;;;;;;5032225;28;20606;-75
2023/06/22 10:31:33;;;;;;;16.23;6.35;;;;;;;;;;5032274;28;20212;-76
2023/06/22 10:33:58;;;;;;;8.23;6.43;;;36.10;1.00;;;;;;5041527;28;20722;-76
2023/06/22 10:36:24;;;;;;;10.23;6.53;;;;;;;;;;5031965;28;20532;-76
2023/06/22 10:38:50;;;;;;;10.77;6.75;;;33.80;1.00;;;;;;5032804;28;20177;-75
2023/06/22 10:41:17;;;;;;;10.15;6.80;;;;;;;;;;5030586;28;20189;-75
2023/06/22 10:43:44;;;;;;;13.82;6.63;;;33.60;1.00;;;;;;5030773;28;20189;-75
2023/06/22 10:46:09;;;;;;;17.40;7.05;;;33.20;1.00;;;;;;5031929;28;20196;-75
2023/06/22 10:48:35;;;;;;;11.50;6.90;;;33.80;1.00;;;;;;5031851;28;20536;-76
2023/06/22 10:51:00;;;;;;;10.95;6.70;;;33.80;1.00;;;;;;5040095;28;20192;-75
2023/06/22 10:53:26;;;;;;;12.63;7.05;;;34.20;1.00;;;;;;5031711;28;20208;-74
2023/06/22 10:55:53;;;;;;;10.82;6.65;;;34.20;1.00;;;;;;5031692;28;20182;-75
2023/06/22 10:58:19;;;;;;;11.48;6.78;;;35.30;1.00;;;;;;5028412;28;20238;-74
2023/06/22 11:00:45;;;;;;;9.15;6.30;;;;;;;;;;5023910;28;20201;-74
2023/06/22 11:03:11;;;;;;;9.68;6.55;;;;;;;;;;5031124;28;20177;-74
2023/06/22 11:05:37;;;;;;;7.43;5.90;;;36.90;1.00;;;;;;5040073;28;20191;-75
2023/06/22 11:08:03;;;;;;;16.38;6.63;;;;;;;;;;5030857;28;20193;-74
2023/06/22 11:10:29;;;;;;;10.10;6.03;;;;;;;;;;5031351;28;20300;-75
2023/06/22 11:12:56;;;;;;;9.60;6.13;;;36.70;1.00;;;;;;5030597;28;20201;-74
2023/06/22 11:15:22;;;;;;;10.75;6.60;;;;;;;;;;5040122;28;20186;-74
2023/06/22 11:17:47;;;;;;;8.77;6.30;;;35.80;1.00;;;;;;5039993;28;20201;-74
2023/06/22 11:20:13;;;;;;;11.98;6.65;;;;;;;;;;5031133;28;20239;-74
2023/06/22 11:22:39;;;;;;;12.65;6.38;;;36.90;1.00;;;;;;5059941;28;20193;-75
2023/06/22 11:25:06;;;;;;;9.30;6.40;;;37.50;1.00;;;;;;5039794;28;20195;-75
2023/06/22 11:27:32;;;;;;;10.43;6.40;;;;;;;;;;5031965;28;20662;-74
2023/06/22 11:29:58;;;;;;;9.15;5.43;;;;;;;;;;5031998;28;20208;-74
2023/06/22 11:32:24;;;;;;;13.63;6.25;;;;;;;;;;5039554;28;20633;-75
2023/06/22 11:34:50;;;;;;;11.35;6.55;;;36.00;1.00;;;;;;5035303;28;20551;-74
2023/06/22 11:37:15;;;;;;;11.38;6.30;;;35.80;1.00;;;;;;5036015;28;20231;-74
2023/06/22 11:39:42;;;;;;;9.30;6.45;;;35.50;1.00;;;;;;5030834;28;20308;-74
2023/06/22 11:42:08;;;;;;;10.35;6.18;;;35.40;1.00;;;;;;5039852;28;20652;-75
2023/06/22 11:44:34;;;;;;;11.07;6.20;;;35.90;1.00;;;;;;5031396;28;20606;-75
2023/06/22 11:47:00;;;;;;;10.63;6.20;;;;;;;;;;5031491;28;20181;-75
2023/06/22 11:49:26;;;;;;;11.15;6.18;;;37.10;1.00;;;;;;5038586;28;20251;-75
2023/06/22 11:51:52;;;;;;;12.10;6.93;;;;;;;;;;5041764;28;20208;-75
2023/06/22 11:54:18;;;;;;;11.77;6.70;;;;;;;;;;5035386;28;20687;-75
2023/06/22 11:56:44;;;;;;;10.73;6.10;;;;;;;;;;5026386;28;20178;-74
2023/06/22 11:59:10;;;;;;;11.30;7.00;;;36.00;1.00;;;;;;5031023;28;20262;-74
2023/06/22 12:01:35;;;;;;;10.20;5.88;;;35.50;1.00;;;;;;5039731;28;20184;-74
2023/06/22 12:04:01;;;;;;;13.93;6.45;;;34.90;1.00;;;;;;5037410;28;20687;-74
2023/06/22 12:06:27;;;;;;;13.85;6.90;;;;;;;;;;5030209;28;20666;-75
2023/06/22 12:08:53;;;;;;;13.45;7.15;;;34.60;1.00;;;;;;5030614;28;20918;-75
2023/06/22 12:11:18;;;;;;;14.35;6.95;;;34.70;1.00;;;;;;5038322;28;20185;-74
2023/06/22 12:13:44;;;;;;;14.10;7.00;;;34.60;1.00;;;;;;5029471;28;20208;-74
2023/06/22 12:16:09;;;;;;;14.18;6.97;;;34.60;1.00;;;;;;5038841;28;20187;-74
2023/06/22 12:18:35;;;;;;;10.15;6.68;;;34.70;1.00;;;;;;5030250;28;20315;-74
2023/06/22 12:21:02;;;;;;;20.40;6.40;;;;;;;;;;5030389;28;20213;-74
2023/06/22 12:23:28;;;;;;;10.15;6.38;;;35.00;1.00;;;;;;5030031;28;20278;-75
2023/06/22 12:25:53;;;;;;;10.63;6.90;;;35.00;1.00;;;;;;5030335;28;20224;-74
2023/06/22 12:28:19;;;;;;;12.07;6.35;;;;;;;;;;5030900;28;20276;-75
2023/06/22 12:30:45;;;;;;;14.55;7.15;;;;;;;;;;5029870;28;20215;-74
2023/06/22 12:33:11;;;;;;;12.82;6.38;;;;;;;;;;5036966;28;20201;-74
2023/06/22 12:35:36;;;;;;;12.98;6.93;;;37.30;1.00;;;;;;5031762;28;20300;-75
2023/06/22 12:38:03;;;;;;;16.10;7.10;;;38.80;1.00;;;;;;5030693;28;20185;-75
2023/06/22 12:40:28;;;;;;;15.10;6.80;;;39.60;1.00;;;;;;5030749;28;20215;-74
2023/06/22 12:42:54;;;;;;;11.65;6.57;;;39.60;1.00;;;;;;5042473;28;20189;-74
2023/06/22 12:45:21;;;;;;;12.77;6.15;;;;;;;;;;5034948;28;20242;-75
2023/06/22 12:47:47;;;;;;;18.45;6.45;;;;;;;;;;5033029;28;20191;-74
2023/06/22 12:50:13;;;;;;;9.55;6.68;;;;;;;;;;5035545;28;20204;-75
2023/06/22 12:52:40;;;;;;;11.32;6.10;;;35.80;1.00;;;;;;5030058;28;20205;-74
2023/06/22 12:55:07;;;;;;;16.90;6.65;;;35.80;1.00;;;;;;5034650;28;20219;-75
2023/06/22 12:57:33;;;;;;;12.63;7.03;;;;;;;;;;5034064;28;20204;-74
2023/06/22 13:00:00;;;;;;;13.38;7.05;;;34.80;1.00;;;;;;5028630;28;20209;-74
2023/06/22 13:02:25;;;;;;;10.02;6.20;;;34.50;1.00;;;;;;5030083;28;20185;-74
2023/06/22 13:04:51;;;;;;;12.00;6.40;;;36.00;1.00;;;;;;5028544;28;20745;-75